createdAt,value
2023-07-03T00:02:24.801Z,23.84
2023-07-03T00:05:27.285Z,23.65
2023-07-03T00:08:29.454Z,23.73
2023-07-03T00:11:31.610Z,23.65
2023-07-03T00:14:33.898Z,23.48
2023-07-03T00:17:38.630Z,23.28
2023-07-03T00:20:41.110Z,23.30
2023-07-03T00:23:43.319Z,23.29
2023-07-03T00:26:45.529Z,23.24
2023-07-03T00:29:47.913Z,23.26
2023-07-03T00:32:50.195Z,23.31
2023-07-03T00:35:52.677Z,23.32
2023-07-03T00:38:58.458Z,23.37
2023-07-03T00:42:01.414Z,23.40
2023-07-03T00:45:08.710Z,23.38
2023-07-03T00:48:11.009Z,23.25
2023-07-03T00:51:15.271Z,23.30
2023-07-03T00:54:17.557Z,23.36
2023-07-03T00:57:20.008Z,23.33
2023-07-03T01:00:23.246Z,23.13
2023-07-03T01:03:33.986Z,22.99
2023-07-03T01:06:44.358Z,23.03
2023-07-03T01:09:54.284Z,23.01
2023-07-03T01:13:01.814Z,23.07
2023-07-03T01:16:05.915Z,23.06
2023-07-03T01:19:12.294Z,23.03
2023-07-03T01:22:21.082Z,22.94
2023-07-03T01:25:26.666Z,22.82
2023-07-03T01:28:29.296Z,22.84
2023-07-03T01:31:31.506Z,22.98
2023-07-03T01:34:35.019Z,23.06
2023-07-03T01:37:40.989Z,23.02
2023-07-03T01:40:43.224Z,22.95
2023-07-03T01:43:46.323Z,22.83
2023-07-03T01:46:48.589Z,22.96
2023-07-03T01:49:50.933Z,23.04
2023-07-03T01:53:02.060Z,23.08
2023-07-03T01:59:30.922Z,23.08
2023-07-03T02:02:33.749Z,23.04
2023-07-03T02:05:39.580Z,23.05
2023-07-03T02:08:42.035Z,22.83
2023-07-03T02:11:46.131Z,22.87
2023-07-03T02:14:49.347Z,22.94
2023-07-03T02:17:55.633Z,22.92
2023-07-03T02:21:01.671Z,22.99
2023-07-03T02:24:07.962Z,23.00
2023-07-03T02:27:10.260Z,22.93
2023-07-03T02:30:14.204Z,22.84
2023-07-03T02:33:17.167Z,22.81
2023-07-03T02:36:19.506Z,22.94
2023-07-03T02:39:21.789Z,22.99
2023-07-03T02:42:24.056Z,22.81
2023-07-03T02:45:26.891Z,22.72
2023-07-03T02:48:29.751Z,22.71
2023-07-03T02:51:32.095Z,22.71
2023-07-03T02:54:36.874Z,22.56
2023-07-03T02:57:40.472Z,22.67
2023-07-03T03:00:43.842Z,22.73
2023-07-03T03:03:46.383Z,22.73
2023-07-03T03:06:49.143Z,22.54
2023-07-03T03:09:51.583Z,22.59
2023-07-03T03:12:54.579Z,22.60
2023-07-03T03:15:57.088Z,22.66
2023-07-03T03:18:59.579Z,22.64
2023-07-03T03:22:01.884Z,22.59
2023-07-03T03:25:04.863Z,22.51
2023-07-03T03:28:07.361Z,22.47
2023-07-03T03:31:09.582Z,22.47
2023-07-03T03:34:16.699Z,22.45
2023-07-03T03:37:19.168Z,22.41
2023-07-03T03:40:21.797Z,22.39
2023-07-03T03:43:24.193Z,22.35
2023-07-03T03:46:26.643Z,22.34
2023-07-03T03:49:29.238Z,22.37
2023-07-03T03:52:32.372Z,22.38
2023-07-03T03:55:34.642Z,22.34
2023-07-03T03:58:37.135Z,22.17
2023-07-03T04:01:39.683Z,21.92
2023-07-03T04:04:41.919Z,21.80
2023-07-03T04:07:45.089Z,21.65
2023-07-03T04:10:47.475Z,21.63
2023-07-03T04:13:49.766Z,21.74
2023-07-03T04:16:52.358Z,21.88
2023-07-03T04:19:54.627Z,21.82
2023-07-03T04:22:56.826Z,21.88
2023-07-03T04:26:00.195Z,22.00
2023-07-03T04:29:02.533Z,22.08
2023-07-03T04:32:05.279Z,22.12
2023-07-03T04:35:08.098Z,22.24
2023-07-03T04:38:10.500Z,22.29
2023-07-03T04:41:13.578Z,22.47
2023-07-03T04:44:15.850Z,22.68
2023-07-03T04:47:18.396Z,22.85
2023-07-03T04:50:26.702Z,22.91
2023-07-03T04:53:28.868Z,22.95
2023-07-03T04:56:33.803Z,22.96
2023-07-03T04:59:37.226Z,23.07
2023-07-03T05:02:39.506Z,23.18
2023-07-03T05:05:41.854Z,23.32
2023-07-03T05:08:44.106Z,23.47
2023-07-03T05:11:49.820Z,23.71
2023-07-03T05:14:52.232Z,23.99
2023-07-03T05:17:57.715Z,24.26
2023-07-03T05:21:00.158Z,24.60
2023-07-03T05:24:04.162Z,24.85
2023-07-03T05:27:06.649Z,25.10
2023-07-03T05:30:09.371Z,25.39
2023-07-03T05:33:12.154Z,25.62
2023-07-03T05:36:14.419Z,25.85
2023-07-03T05:39:16.812Z,26.03
2023-07-03T05:42:19.521Z,26.24
2023-07-03T05:45:21.673Z,26.47
2023-07-03T05:48:24.475Z,26.64
2023-07-03T05:51:26.759Z,26.89
2023-07-03T05:54:29.108Z,27.08
2023-07-03T05:57:31.411Z,27.30
2023-07-03T06:00:34.252Z,27.40
2023-07-03T06:03:36.746Z,27.38
2023-07-03T06:06:39.037Z,27.59
2023-07-03T06:09:42.295Z,27.85
2023-07-03T06:12:44.842Z,28.02
2023-07-03T06:15:47.141Z,28.29
2023-07-03T06:18:49.423Z,28.51
2023-07-03T06:21:51.756Z,28.56
2023-07-03T06:24:53.884Z,28.45
2023-07-03T06:27:56.013Z,28.23
2023-07-03T06:30:58.309Z,28.22
2023-07-03T06:34:00.499Z,28.44
2023-07-03T06:37:06.318Z,28.49
2023-07-03T06:40:12.082Z,28.80
2023-07-03T06:43:14.434Z,29.01
2023-07-03T06:46:16.869Z,29.22
2023-07-03T06:49:19.243Z,29.47
2023-07-03T06:52:21.543Z,29.37
2023-07-03T06:55:23.677Z,29.35
2023-07-03T06:58:26.903Z,29.63
2023-07-03T07:01:30.076Z,30.28
2023-07-03T07:04:32.981Z,31.23
2023-07-03T07:07:35.354Z,32.56
2023-07-03T07:10:41.117Z,34.19
2023-07-03T07:13:46.394Z,35.24
2023-07-03T07:16:48.759Z,36.35
2023-07-03T07:19:51.093Z,37.12
2023-07-03T07:22:53.321Z,37.71
2023-07-03T07:25:58.383Z,38.13
2023-07-03T07:29:04.599Z,38.38
2023-07-03T07:32:07.596Z,38.20
2023-07-03T07:35:10.031Z,38.08
2023-07-03T07:38:12.826Z,37.83
2023-07-03T07:41:15.192Z,37.72
2023-07-03T07:44:17.436Z,37.62
2023-07-03T07:47:19.735Z,37.52
2023-07-03T07:50:22.667Z,37.46
2023-07-03T07:53:24.916Z,37.37
2023-07-03T07:56:29.769Z,37.38
2023-07-03T07:59:37.564Z,37.23
2023-07-03T08:02:40.017Z,37.09
2023-07-03T08:05:42.307Z,36.73
2023-07-03T08:08:44.554Z,36.45
2023-07-03T08:11:46.835Z,36.02
2023-07-03T08:14:49.342Z,35.44
2023-07-03T08:17:51.683Z,34.68
2023-07-03T08:20:54.592Z,34.07
2023-07-03T08:23:56.934Z,33.77
2023-07-03T08:26:59.203Z,33.55
2023-07-03T08:30:01.799Z,33.38
2023-07-03T08:33:04.147Z,33.26
2023-07-03T08:39:12.409Z,32.76
2023-07-03T08:42:33.235Z,32.66
2023-07-03T08:45:39.341Z,32.04
2023-07-03T08:48:43.299Z,32.19
2023-07-03T08:51:45.516Z,32.41
2023-07-03T08:54:49.302Z,32.51
2023-07-03T08:57:51.729Z,32.42
2023-07-03T09:01:04.115Z,32.29
2023-07-03T09:04:47.143Z,31.84
2023-07-03T09:08:02.364Z,31.17
2023-07-03T09:11:05.044Z,31.28
2023-07-03T09:14:12.744Z,31.42
2023-07-03T09:17:15.051Z,31.43
2023-07-03T09:20:17.408Z,31.37
2023-07-03T09:23:22.822Z,31.31
2023-07-03T09:26:31.949Z,31.26
2023-07-03T09:29:36.239Z,31.38
2023-07-03T09:32:38.630Z,31.40
2023-07-03T09:35:42.040Z,31.40
2023-07-03T09:38:44.368Z,31.27
2023-07-03T09:41:47.891Z,31.22
2023-07-03T09:44:51.043Z,31.14
2023-07-03T09:47:59.792Z,30.88
2023-07-03T09:51:08.067Z,30.67
2023-07-03T09:54:23.042Z,30.47
2023-07-03T09:57:28.511Z,30.38
2023-07-03T10:00:31.655Z,30.30
2023-07-03T10:03:36.226Z,30.39
2023-07-03T10:06:40.508Z,30.47
2023-07-03T10:12:57.310Z,30.51
2023-07-03T10:16:00.337Z,30.56
2023-07-03T10:19:03.020Z,30.67
2023-07-03T10:22:06.715Z,30.85
2023-07-03T10:25:11.542Z,30.83
2023-07-03T10:28:20.055Z,30.79
2023-07-03T10:31:35.776Z,30.77
2023-07-03T10:34:43.871Z,30.71
2023-07-03T10:37:53.527Z,30.40
2023-07-03T10:41:00.739Z,30.20
2023-07-03T10:44:14.350Z,30.25
2023-07-03T10:47:21.252Z,30.24
2023-07-03T10:50:30.005Z,30.10
2023-07-03T10:53:45.710Z,30.09
2023-07-03T10:56:53.592Z,30.06
2023-07-03T10:59:59.655Z,30.07
2023-07-03T11:03:22.433Z,30.14
2023-07-03T11:06:32.022Z,30.20
2023-07-03T11:09:58.885Z,30.22
2023-07-03T11:13:08.912Z,30.19
2023-07-03T11:16:15.444Z,30.21
2023-07-03T11:28:55.355Z,30.34
2023-07-03T11:31:58.095Z,30.43
2023-07-03T11:44:29.854Z,29.46
2023-07-03T11:47:34.539Z,29.60
2023-07-03T11:50:36.887Z,29.49
2023-07-03T11:53:41.824Z,29.48
2023-07-03T11:56:45.464Z,29.54
2023-07-03T11:59:47.775Z,29.55
2023-07-03T12:02:50.010Z,29.71
2023-07-03T12:05:53.423Z,29.58
2023-07-03T12:09:23.293Z,29.63
2023-07-03T12:12:27.913Z,29.57
2023-07-03T12:15:30.160Z,29.62
2023-07-03T12:18:34.000Z,29.58
2023-07-03T12:21:39.697Z,29.79
2023-07-03T12:24:41.979Z,29.65
2023-07-03T12:27:44.102Z,29.57
2023-07-03T12:30:46.522Z,29.54
2023-07-03T12:33:58.605Z,29.57
2023-07-03T12:37:04.242Z,29.54
2023-07-03T12:40:09.420Z,29.66
2023-07-03T12:43:18.480Z,29.60
2023-07-03T12:46:36.221Z,29.53
2023-07-03T12:50:00.202Z,29.60
2023-07-03T12:53:04.951Z,29.63
2023-07-03T12:56:09.559Z,29.68
2023-07-03T12:59:16.881Z,29.61
2023-07-03T13:02:39.470Z,29.67
2023-07-03T13:05:41.893Z,29.68
2023-07-03T13:08:50.672Z,29.64
2023-07-03T13:11:53.056Z,29.60
2023-07-03T13:15:08.134Z,29.46
2023-07-03T13:18:13.485Z,29.51
2023-07-03T13:21:20.924Z,29.40
2023-07-03T13:24:24.881Z,29.39
2023-07-03T13:27:27.677Z,29.43
2023-07-03T13:30:36.734Z,29.47
2023-07-03T13:33:43.712Z,29.50
2023-07-03T13:36:51.181Z,29.46
2023-07-03T13:40:01.125Z,29.62
2023-07-03T13:43:05.535Z,29.42
2023-07-03T13:46:09.290Z,29.37
2023-07-03T13:49:15.540Z,29.31
2023-07-03T13:52:17.804Z,29.26
2023-07-03T13:55:19.898Z,29.18
2023-07-03T13:58:22.314Z,29.11
2023-07-03T14:01:26.703Z,29.12
2023-07-03T14:04:30.303Z,29.12
2023-07-03T14:07:32.657Z,29.08
2023-07-03T14:10:35.195Z,29.03
2023-07-03T14:13:38.105Z,29.03
2023-07-03T14:16:40.432Z,29.00
2023-07-03T14:19:42.529Z,28.98
2023-07-03T14:22:44.980Z,28.99
2023-07-03T14:25:48.544Z,29.01
2023-07-03T14:28:51.209Z,29.00
2023-07-03T14:31:53.413Z,29.00
2023-07-03T14:34:55.558Z,29.04
2023-07-03T14:37:57.709Z,28.95
2023-07-03T14:41:01.549Z,28.86
2023-07-03T14:44:04.224Z,28.86
2023-07-03T14:47:06.704Z,28.77
2023-07-03T14:50:12.849Z,28.85
2023-07-03T14:53:15.331Z,28.97
2023-07-03T14:56:17.566Z,28.98
2023-07-03T14:59:19.697Z,28.91
2023-07-03T15:02:21.905Z,28.91
2023-07-03T15:05:24.335Z,28.87
2023-07-03T15:08:27.243Z,28.87
2023-07-03T15:11:29.421Z,28.82
2023-07-03T15:14:31.703Z,28.75
2023-07-03T15:17:34.100Z,28.84
2023-07-03T15:20:39.603Z,28.87
2023-07-03T15:23:42.107Z,28.90
2023-07-03T15:26:44.238Z,28.78
2023-07-03T15:29:47.528Z,28.93
2023-07-03T15:32:53.440Z,28.83
2023-07-03T15:35:57.309Z,28.81
2023-07-03T15:38:59.741Z,28.79
2023-07-03T15:42:01.980Z,28.77
2023-07-03T15:45:04.593Z,28.59
2023-07-03T15:48:06.902Z,28.61
2023-07-03T15:51:09.605Z,28.49
2023-07-03T15:54:11.802Z,28.39
2023-07-03T15:57:18.105Z,28.30
2023-07-03T16:00:24.194Z,28.26
2023-07-03T16:03:26.599Z,28.22
2023-07-03T16:06:33.685Z,28.23
2023-07-03T16:09:35.936Z,28.13
2023-07-03T16:12:39.120Z,28.09
2023-07-03T16:15:41.458Z,28.05
2023-07-03T16:18:48.464Z,27.93
2023-07-03T16:21:50.831Z,27.95
2023-07-03T16:24:52.940Z,27.96
2023-07-03T16:27:55.115Z,27.89
2023-07-03T16:31:02.084Z,27.85
2023-07-03T16:34:04.439Z,27.79
2023-07-03T16:37:06.798Z,27.85
2023-07-03T16:40:09.954Z,27.89
2023-07-03T16:43:12.192Z,27.93
2023-07-03T16:46:18.969Z,27.98
2023-07-03T16:49:21.309Z,28.07
2023-07-03T16:52:23.448Z,28.06
2023-07-03T16:55:25.630Z,28.11
2023-07-03T16:58:27.829Z,28.13
2023-07-03T17:01:30.949Z,28.09
2023-07-03T17:04:34.320Z,28.11
2023-07-03T17:07:36.603Z,28.17
2023-07-03T17:10:38.799Z,28.22
2023-07-03T17:13:41.523Z,28.29
2023-07-03T17:16:43.840Z,28.03
2023-07-03T17:19:46.154Z,27.83
2023-07-03T17:22:48.373Z,27.67
2023-07-03T17:25:50.844Z,27.55
2023-07-03T17:28:53.176Z,27.47
2023-07-03T17:31:55.485Z,27.34
2023-07-03T17:34:57.712Z,27.42
2023-07-03T17:38:00.165Z,27.29
2023-07-03T17:41:06.776Z,27.33
2023-07-03T17:44:09.105Z,27.32
2023-07-03T17:47:11.352Z,27.41
2023-07-03T17:50:13.597Z,27.36
2023-07-03T17:53:16.733Z,27.27
2023-07-03T17:56:21.163Z,27.11
2023-07-03T17:59:24.017Z,27.06
2023-07-03T18:02:26.382Z,27.24
2023-07-03T18:05:30.187Z,27.44
2023-07-03T18:08:32.458Z,27.53
2023-07-03T18:11:34.819Z,27.40
2023-07-03T18:14:38.923Z,27.35
2023-07-03T18:17:41.227Z,27.44
2023-07-03T18:20:45.326Z,27.53
2023-07-03T18:23:49.615Z,27.52
2023-07-03T18:26:51.908Z,27.48
2023-07-03T18:29:54.192Z,27.10
2023-07-03T18:32:56.827Z,26.95
2023-07-03T18:35:59.314Z,27.10
2023-07-03T18:39:01.719Z,27.03
2023-07-03T18:42:04.285Z,26.86
2023-07-03T18:45:06.931Z,26.90
2023-07-03T18:48:09.195Z,26.79
2023-07-03T18:51:24.236Z,26.85
2023-07-03T18:54:26.561Z,26.95
2023-07-03T18:57:28.865Z,26.95
2023-07-03T19:00:31.003Z,26.92
2023-07-03T19:03:33.956Z,27.03
2023-07-03T19:06:36.318Z,27.15
2023-07-03T19:09:38.428Z,27.17
2023-07-03T19:12:41.646Z,27.22
2023-07-03T19:15:44.750Z,27.25
2023-07-03T19:18:48.300Z,27.23
2023-07-03T19:21:50.605Z,27.20
2023-07-03T19:24:56.542Z,27.15
2023-07-03T19:27:59.069Z,27.10
2023-07-03T19:31:02.268Z,27.05
2023-07-03T19:34:05.144Z,27.02
2023-07-03T19:37:07.793Z,26.93
2023-07-03T19:40:10.088Z,26.92
2023-07-03T19:43:12.238Z,26.85
2023-07-03T19:46:14.457Z,26.82
2023-07-03T19:49:16.624Z,26.76
2023-07-03T19:52:22.158Z,26.73
2023-07-03T19:55:24.820Z,26.71
2023-07-03T19:58:27.233Z,26.66
2023-07-03T20:01:31.510Z,26.66
2023-07-03T20:04:34.115Z,26.64
